createdAt,value
2023-03-11T00:00:19.323Z,-0.20
2023-03-11T00:02:48.497Z,-0.30
2023-03-11T00:05:23.179Z,-0.30
2023-03-11T00:07:51.686Z,-0.20
2023-03-11T00:10:23.858Z,-0.20
2023-03-11T00:12:51.829Z,-0.20
2023-03-11T00:15:19.746Z,-0.20
2023-03-11T00:17:50.851Z,-0.20
2023-03-11T00:20:27.807Z,-0.30
2023-03-11T00:22:56.512Z,-0.30
2023-03-11T00:25:26.324Z,-0.30
2023-03-11T00:27:54.189Z,-0.30
2023-03-11T00:30:23.318Z,-0.40
2023-03-11T00:32:53.157Z,-0.40
2023-03-11T00:35:30.801Z,-0.40
2023-03-11T00:38:01.952Z,-0.40
2023-03-11T00:40:31.831Z,-0.40
2023-03-11T00:43:00.246Z,-0.50
2023-03-11T00:45:29.125Z,2.30
2023-03-11T00:50:31.962Z,-0.50
2023-03-11T00:53:00.687Z,-0.50
2023-03-11T00:55:31.636Z,-0.50
2023-03-11T00:58:03.974Z,-0.60
2023-03-11T01:00:53.636Z,-0.60
2023-03-11T01:03:22.555Z,-0.60
2023-03-11T01:08:19.674Z,-0.60
2023-03-11T01:10:47.967Z,-0.70
2023-03-11T01:13:15.703Z,-0.70
2023-03-11T01:15:43.550Z,-0.40
2023-03-11T01:18:11.569Z,0.70
2023-03-11T01:20:39.289Z,-0.70
2023-03-11T01:23:07.892Z,-0.90
2023-03-11T01:25:36.465Z,-0.90
2023-03-11T01:28:04.416Z,-1.00
2023-03-11T01:30:32.155Z,-1.00
2023-03-11T01:33:00.195Z,-1.00
2023-03-11T01:35:30.362Z,-1.10
2023-03-11T01:37:59.099Z,-0.50
2023-03-11T01:40:38.468Z,-1.20
2023-03-11T01:44:01.288Z,-1.20
2023-03-11T01:46:59.907Z,-1.30
2023-03-11T01:52:07.971Z,-1.50
2023-03-11T01:54:43.931Z,-1.60
2023-03-11T01:57:14.804Z,-1.60
2023-03-11T01:59:50.930Z,-1.60
2023-03-11T02:02:34.546Z,-1.70
2023-03-11T02:05:03.968Z,-1.80
2023-03-11T02:07:32.495Z,-1.90
2023-03-11T02:12:35.505Z,-2.00
2023-03-11T02:15:07.154Z,-2.00
2023-03-11T02:17:37.978Z,-2.10
2023-03-11T02:20:27.520Z,-2.10
2023-03-11T02:22:57.388Z,-2.10
2023-03-11T02:25:48.711Z,-2.10
2023-03-11T02:28:19.356Z,-2.10
2023-03-11T02:30:48.321Z,-2.10
2023-03-11T02:33:19.319Z,-2.10
2023-03-11T02:35:49.550Z,-2.00
2023-03-11T02:38:17.357Z,-2.00
2023-03-11T02:40:55.786Z,-1.90
2023-03-11T02:43:34.764Z,-1.80
2023-03-11T02:46:03.177Z,-1.80
2023-03-11T02:48:34.476Z,-1.70
2023-03-11T02:51:02.759Z,-1.60
2023-03-11T02:53:35.684Z,-1.60
2023-03-11T02:56:03.886Z,-1.60
2023-03-11T02:58:32.040Z,-1.50
2023-03-11T03:00:59.749Z,-1.50
2023-03-11T03:05:55.693Z,-1.50
2023-03-11T03:08:23.136Z,-1.40
2023-03-11T03:10:50.849Z,-1.40
2023-03-11T03:13:18.612Z,-1.40
2023-03-11T03:15:46.265Z,-1.40
2023-03-11T03:18:13.960Z,-1.40
2023-03-11T03:20:41.770Z,-1.40
2023-03-11T03:23:09.399Z,-1.40
2023-03-11T03:25:37.807Z,-1.50
2023-03-11T03:28:09.022Z,-1.60
2023-03-11T03:33:07.351Z,-1.60
2023-03-11T03:35:35.466Z,-1.60
2023-03-11T03:40:39.969Z,-1.70
2023-03-11T03:43:08.853Z,-1.60
2023-03-11T03:45:38.076Z,-1.60
2023-03-11T03:48:06.478Z,-1.60
2023-03-11T03:50:40.412Z,-1.60
2023-03-11T03:53:09.378Z,-1.60
2023-03-11T03:55:36.956Z,-1.60
2023-03-11T03:58:04.667Z,-1.50
2023-03-11T04:00:35.598Z,-1.50
2023-03-11T04:03:04.447Z,-1.50
2023-03-11T04:05:40.769Z,-1.40
2023-03-11T04:08:08.707Z,-1.40
2023-03-11T04:10:36.408Z,-1.40
2023-03-11T04:13:04.655Z,-1.30
2023-03-11T04:15:33.157Z,-1.30
2023-03-11T04:18:00.786Z,-1.30
2023-03-11T04:20:28.528Z,-1.30
2023-03-11T04:22:56.135Z,-1.30
2023-03-11T04:25:25.333Z,-1.00
2023-03-11T04:27:52.944Z,-1.30
2023-03-11T04:30:21.770Z,-1.30
2023-03-11T04:32:52.757Z,-4.50
2023-03-11T04:35:20.750Z,-1.30
2023-03-11T04:37:49.132Z,-1.30
2023-03-11T04:40:17.530Z,-1.40
2023-03-11T04:42:46.337Z,-1.40
2023-03-11T04:45:14.739Z,-1.40
2023-03-11T04:47:47.238Z,-1.40
2023-03-11T04:50:15.836Z,-1.40
2023-03-11T04:52:43.805Z,-1.40
2023-03-11T04:55:13.888Z,-1.40
2023-03-11T04:57:43.327Z,-0.60
2023-03-11T05:00:15.800Z,-1.30
2023-03-11T05:02:47.547Z,-1.40
2023-03-11T05:05:15.678Z,-1.40
2023-03-11T05:07:44.224Z,-1.40
2023-03-11T05:10:14.430Z,-1.40
2023-03-11T05:12:42.200Z,0.10
2023-03-11T05:15:10.130Z,-1.30
2023-03-11T05:17:38.252Z,-1.40
2023-03-11T05:20:07.641Z,-1.30
2023-03-11T05:22:36.098Z,-1.30
2023-03-11T05:25:05.168Z,-1.30
2023-03-11T05:27:32.906Z,-1.30
2023-03-11T05:30:00.964Z,-1.30
2023-03-11T05:32:32.326Z,-1.30
2023-03-11T05:35:00.269Z,-0.70
2023-03-11T05:37:28.395Z,-1.30
2023-03-11T05:39:57.257Z,-1.20
2023-03-11T05:42:24.910Z,-1.30
2023-03-11T05:44:55.097Z,-1.20
2023-03-11T05:47:24.711Z,-1.20
2023-03-11T05:49:52.726Z,-1.30
2023-03-11T05:52:21.224Z,-1.20
2023-03-11T05:54:51.523Z,-1.20
2023-03-11T05:57:22.890Z,-1.20
2023-03-11T05:59:50.539Z,-1.20
2023-03-11T06:02:18.285Z,0.30
2023-03-11T06:04:46.459Z,-1.10
2023-03-11T06:07:16.531Z,-1.10
2023-03-11T06:09:47.216Z,-1.10
2023-03-11T06:12:18.928Z,-1.10
2023-03-11T06:15:08.000Z,-1.10
2023-03-11T06:17:37.026Z,-1.10
2023-03-11T06:20:06.192Z,-1.10
2023-03-11T06:22:34.513Z,-1.10
2023-03-11T06:25:02.496Z,-0.30
2023-03-11T06:27:32.518Z,-1.10
2023-03-11T06:30:00.352Z,0.20
2023-03-11T06:32:29.789Z,-1.10
2023-03-11T06:34:58.034Z,-1.10
2023-03-11T06:37:26.074Z,-1.10
2023-03-11T06:39:54.204Z,-1.10
2023-03-11T06:42:26.962Z,-1.10
2023-03-11T06:44:58.213Z,-1.10
2023-03-11T06:47:26.490Z,-1.10
2023-03-11T06:49:54.253Z,-1.10
2023-03-11T06:52:21.770Z,-1.10
2023-03-11T06:54:50.314Z,-1.10
2023-03-11T06:57:18.383Z,-1.10
2023-03-11T06:59:48.507Z,-1.10
2023-03-11T07:02:18.418Z,0.40
2023-03-11T07:04:48.857Z,-0.40
2023-03-11T07:07:17.369Z,-1.00
2023-03-11T07:12:15.197Z,-1.10
2023-03-11T07:14:43.139Z,-1.10
2023-03-11T07:22:14.067Z,-1.00
2023-03-11T07:24:41.931Z,-1.00
2023-03-11T07:27:09.878Z,-0.90
2023-03-11T07:29:37.496Z,-0.70
2023-03-11T07:32:06.690Z,-0.80
2023-03-11T07:34:35.090Z,-0.70
2023-03-11T07:37:03.678Z,-0.60
2023-03-11T07:39:31.338Z,-0.50
2023-03-11T07:41:59.250Z,-0.40
2023-03-11T07:44:34.951Z,-0.40
2023-03-11T07:47:04.471Z,-0.40
2023-03-11T07:52:00.130Z,-0.30
2023-03-11T07:54:28.234Z,1.50
2023-03-11T07:56:55.846Z,-0.20
2023-03-11T07:59:23.719Z,1.10
2023-03-11T08:01:51.796Z,-0.10
2023-03-11T08:04:19.385Z,1.00
2023-03-11T08:06:48.047Z,0.00
2023-03-11T08:09:15.825Z,0.20
2023-03-11T08:11:43.659Z,0.30
2023-03-11T08:14:11.805Z,0.40
2023-03-11T08:16:41.492Z,0.60
2023-03-11T08:19:12.354Z,0.80
2023-03-11T08:21:40.531Z,1.00
2023-03-11T08:24:10.757Z,1.30
2023-03-11T08:26:39.051Z,1.40
2023-03-11T08:29:07.575Z,1.70
2023-03-11T08:31:35.696Z,1.80
2023-03-11T08:34:07.644Z,1.80
2023-03-11T08:36:35.766Z,2.10
2023-03-11T08:39:04.152Z,2.30
2023-03-11T08:41:32.729Z,2.30
2023-03-11T08:44:00.448Z,2.50
2023-03-11T08:46:30.656Z,4.20
2023-03-11T08:49:01.014Z,2.80
2023-03-11T08:51:31.932Z,2.90
2023-03-11T08:54:00.786Z,3.00
2023-03-11T08:56:29.005Z,3.00
2023-03-11T08:58:57.093Z,3.00
2023-03-11T09:01:25.730Z,3.10
2023-03-11T09:03:53.925Z,3.60
2023-03-11T09:06:21.697Z,3.30
2023-03-11T09:08:50.513Z,3.40
2023-03-11T09:11:19.065Z,5.10
2023-03-11T09:13:46.766Z,3.50
2023-03-11T09:16:21.082Z,3.60
2023-03-11T09:18:49.876Z,3.60
2023-03-11T09:21:17.456Z,3.70
2023-03-11T09:23:45.325Z,3.70
2023-03-11T09:26:13.698Z,3.90
2023-03-11T09:28:42.472Z,4.00
2023-03-11T09:31:10.481Z,4.30
2023-03-11T09:33:39.141Z,4.20
2023-03-11T09:36:07.828Z,4.20
2023-03-11T09:38:35.461Z,4.30
2023-03-11T09:41:15.601Z,4.30
2023-03-11T09:44:02.826Z,4.50
2023-03-11T09:46:42.718Z,4.70
2023-03-11T09:49:58.084Z,4.70
2023-03-11T09:52:51.682Z,4.90
2023-03-11T09:55:27.340Z,5.00
2023-03-11T09:57:58.273Z,5.00
2023-03-11T10:00:26.255Z,5.00
2023-03-11T10:05:23.282Z,5.10
2023-03-11T10:08:23.307Z,5.20
2023-03-11T10:11:15.643Z,5.40
2023-03-11T10:14:12.490Z,5.50
2023-03-11T10:17:10.989Z,5.60
2023-03-11T10:19:50.278Z,5.60
2023-03-11T10:22:40.962Z,5.70
2023-03-11T10:25:19.998Z,5.80
2023-03-11T10:27:52.250Z,6.00
2023-03-11T10:30:29.575Z,5.90
2023-03-11T10:33:35.783Z,5.90
2023-03-11T10:36:35.096Z,6.00
2023-03-11T10:39:03.471Z,6.10
2023-03-11T10:41:52.171Z,6.20
2023-03-11T10:44:42.817Z,6.30
2023-03-11T10:47:23.084Z,6.40
2023-03-11T10:49:52.717Z,6.30
2023-03-11T10:52:20.502Z,6.50
2023-03-11T10:54:58.933Z,6.40
2023-03-11T10:57:34.895Z,6.30
2023-03-11T11:00:17.309Z,6.30
2023-03-11T11:02:53.900Z,6.20
2023-03-11T11:05:34.941Z,6.30
2023-03-11T11:08:07.224Z,6.30
2023-03-11T11:10:36.638Z,6.40
2023-03-11T11:13:13.532Z,6.50
2023-03-11T11:16:02.920Z,6.50
2023-03-11T11:18:44.291Z,6.60
2023-03-11T11:21:28.197Z,6.90
2023-03-11T11:24:21.109Z,6.90
2023-03-11T11:27:19.697Z,6.90
2023-03-11T11:30:02.378Z,7.00
2023-03-11T11:32:30.266Z,7.00
2023-03-11T11:35:03.362Z,7.10
2023-03-11T11:37:34.698Z,7.10
2023-03-11T11:40:16.795Z,7.20
2023-03-11T11:43:05.922Z,7.30
2023-03-11T11:45:57.156Z,7.40
2023-03-11T11:48:34.818Z,7.50
2023-03-11T11:51:15.456Z,7.70
2023-03-11T11:53:58.031Z,7.70
2023-03-11T11:56:26.868Z,7.80
2023-03-11T11:58:55.435Z,7.90
2023-03-11T12:01:54.350Z,8.00
2023-03-11T12:04:31.746Z,8.00
2023-03-11T12:07:17.667Z,8.00
2023-03-11T12:10:22.866Z,8.10
2023-03-11T12:13:14.062Z,8.10
2023-03-11T12:15:54.373Z,8.00
2023-03-11T12:18:30.537Z,8.00
2023-03-11T12:20:58.983Z,8.00
2023-03-11T12:23:55.105Z,8.00
2023-03-11T12:26:26.486Z,8.00
2023-03-11T12:29:11.049Z,8.00
2023-03-11T12:31:40.985Z,8.00
2023-03-11T12:34:13.557Z,8.20
2023-03-11T12:36:44.100Z,8.30
2023-03-11T12:39:25.164Z,8.20
2023-03-11T12:42:11.616Z,8.20
2023-03-11T12:44:40.417Z,8.20
2023-03-11T12:47:07.984Z,8.30
2023-03-11T12:49:40.182Z,8.40
2023-03-11T12:52:13.870Z,8.40
2023-03-11T12:54:48.487Z,8.60
2023-03-11T12:57:19.227Z,8.80
2023-03-11T12:59:55.652Z,8.90
2023-03-11T13:02:55.788Z,8.80
2023-03-11T13:05:26.112Z,8.60
2023-03-11T13:08:15.346Z,8.60
2023-03-11T13:10:42.938Z,8.60
2023-03-11T13:13:30.126Z,8.50
2023-03-11T13:15:58.886Z,8.40
2023-03-11T13:18:30.524Z,8.30
2023-03-11T13:20:59.924Z,8.20
2023-03-11T13:23:38.278Z,8.00
2023-03-11T13:26:43.058Z,7.90
2023-03-11T13:29:23.788Z,7.70
2023-03-11T13:31:59.788Z,7.60
2023-03-11T13:34:42.372Z,7.60
2023-03-11T13:37:28.078Z,7.50
2023-03-11T13:40:14.337Z,7.40
2023-03-11T13:42:54.342Z,7.30
2023-03-11T13:45:29.924Z,7.20
2023-03-11T13:48:01.615Z,7.20
2023-03-11T13:50:35.190Z,7.20
2023-03-11T13:53:08.592Z,7.20
2023-03-11T13:55:41.903Z,7.30
2023-03-11T13:58:20.896Z,7.30
2023-03-11T14:00:59.825Z,7.40
2023-03-11T14:03:37.135Z,7.50
2023-03-11T14:06:13.247Z,7.50
2023-03-11T14:08:41.454Z,7.50
2023-03-11T14:11:10.853Z,7.50
2023-03-11T14:13:44.327Z,7.50
2023-03-11T14:16:24.847Z,7.40
2023-03-11T14:19:09.426Z,7.20
2023-03-11T14:21:37.692Z,7.10
2023-03-11T14:24:05.459Z,7.10
2023-03-11T14:26:35.703Z,6.90
2023-03-11T14:29:10.771Z,6.70
2023-03-11T14:31:40.986Z,6.50
2023-03-11T14:34:16.162Z,6.30
2023-03-11T14:36:45.174Z,6.30
2023-03-11T14:39:35.670Z,6.20
2023-03-11T14:42:23.961Z,6.00
2023-03-11T14:45:05.284Z,6.00
2023-03-11T14:47:44.426Z,5.90
2023-03-11T14:50:21.117Z,5.90
2023-03-11T14:52:55.554Z,5.80
2023-03-11T14:55:53.822Z,5.70
2023-03-11T14:58:34.654Z,5.60
2023-03-11T15:01:14.836Z,5.60
2023-03-11T15:03:47.737Z,5.50
2023-03-11T15:06:25.942Z,5.40
2023-03-11T15:09:06.302Z,5.30
2023-03-11T15:11:58.353Z,5.30
2023-03-11T15:14:28.919Z,5.30
2023-03-11T15:17:33.037Z,5.30
2023-03-11T15:20:04.842Z,5.20
2023-03-11T15:22:38.864Z,5.20
2023-03-11T15:25:20.250Z,5.30
2023-03-11T15:27:47.939Z,5.30
2023-03-11T15:30:19.028Z,5.20
2023-03-11T15:32:48.578Z,5.20
2023-03-11T15:35:26.893Z,5.20
2023-03-11T15:38:13.207Z,5.20
2023-03-11T15:40:52.528Z,5.20
2023-03-11T15:43:24.721Z,5.10
2023-03-11T15:45:56.188Z,5.10
2023-03-11T15:50:57.926Z,5.00
2023-03-11T15:53:27.856Z,4.90
2023-03-11T15:56:06.871Z,4.90
2023-03-11T15:58:38.239Z,4.80
2023-03-11T16:01:07.771Z,4.80
2023-03-11T16:03:35.843Z,4.70
2023-03-11T16:08:31.501Z,4.70
2023-03-11T16:10:59.196Z,4.60
2023-03-11T16:13:26.825Z,4.60
2023-03-11T16:15:54.619Z,4.60
2023-03-11T16:18:22.312Z,4.60
2023-03-11T16:20:53.145Z,4.60
2023-03-11T16:23:24.020Z,4.60
2023-03-11T16:25:57.051Z,4.60
2023-03-11T16:28:24.733Z,4.50
2023-03-11T16:30:52.465Z,4.50
2023-03-11T16:33:20.247Z,4.50
2023-03-11T16:35:48.267Z,4.50
2023-03-11T16:40:45.769Z,4.40
2023-03-11T16:43:16.501Z,4.30
2023-03-11T16:45:44.082Z,4.30
2023-03-11T16:48:11.782Z,4.30
2023-03-11T16:50:39.350Z,4.30
2023-03-11T16:53:07.001Z,4.30
2023-03-11T16:55:34.612Z,4.30
2023-03-11T16:58:02.272Z,4.20
2023-03-11T17:00:29.832Z,4.20
2023-03-11T17:05:25.780Z,4.10
2023-03-11T17:08:01.209Z,4.20
2023-03-11T17:10:29.554Z,4.10
2023-03-11T17:12:57.584Z,4.10
2023-03-11T17:15:25.177Z,4.10
2023-03-11T17:17:53.004Z,4.10
2023-03-11T17:20:21.872Z,4.10
2023-03-11T17:22:49.948Z,4.10
2023-03-11T17:25:18.125Z,4.00
2023-03-11T17:27:46.054Z,4.00
2023-03-11T17:30:19.384Z,4.00
2023-03-11T17:35:20.616Z,3.90
2023-03-11T17:37:48.213Z,3.90
2023-03-11T17:40:17.438Z,5.90
2023-03-11T17:42:45.060Z,3.80
2023-03-11T17:45:13.088Z,3.80
2023-03-11T17:52:36.486Z,3.80
2023-03-11T17:55:04.427Z,3.70
2023-03-11T17:57:37.496Z,3.70
2023-03-11T18:02:42.828Z,3.60
2023-03-11T18:05:11.342Z,3.50
2023-03-11T18:07:41.688Z,3.50
2023-03-11T18:10:10.899Z,3.50
2023-03-11T18:12:39.560Z,3.40
2023-03-11T18:15:12.093Z,3.40
2023-03-11T18:17:40.257Z,3.40
2023-03-11T18:22:37.301Z,3.30
2023-03-11T18:25:12.331Z,3.30
2023-03-11T18:27:40.422Z,3.30
2023-03-11T18:30:11.518Z,3.30
2023-03-11T18:32:39.558Z,3.30
2023-03-11T18:35:07.762Z,3.20
2023-03-11T18:40:03.711Z,5.70
2023-03-11T18:42:32.565Z,3.00
2023-03-11T18:45:00.448Z,3.10
2023-03-11T18:47:28.327Z,3.00
2023-03-11T18:49:56.092Z,2.90
2023-03-11T18:52:23.796Z,2.90
2023-03-11T18:54:51.340Z,2.90
2023-03-11T18:57:18.903Z,2.80
2023-03-11T18:59:49.208Z,2.70
2023-03-11T19:02:17.040Z,2.70
2023-03-11T19:04:45.113Z,2.70
2023-03-11T19:07:13.112Z,2.70
2023-03-11T19:09:41.038Z,2.70
2023-03-11T19:12:08.665Z,2.70
2023-03-11T19:14:36.382Z,2.70
2023-03-11T19:17:04.285Z,2.70
2023-03-11T19:19:33.254Z,2.70
2023-03-11T19:24:29.697Z,2.70
2023-03-11T19:26:57.967Z,2.60
2023-03-11T19:31:54.509Z,2.70
2023-03-11T19:34:22.478Z,2.80
2023-03-11T19:36:50.395Z,3.80
2023-03-11T19:39:18.041Z,2.90
2023-03-11T19:41:45.682Z,2.80
2023-03-11T19:44:13.935Z,2.90
2023-03-11T19:46:41.524Z,2.90
2023-03-11T19:49:09.238Z,3.00
2023-03-11T19:51:48.993Z,2.90
2023-03-11T19:54:18.272Z,2.90
2023-03-11T19:56:46.560Z,3.00
2023-03-11T19:59:14.795Z,3.00
2023-03-11T20:01:42.886Z,4.70
2023-03-11T20:04:11.169Z,3.00
2023-03-11T20:06:39.100Z,3.10
2023-03-11T20:09:07.088Z,4.60
2023-03-11T20:11:39.731Z,3.10
2023-03-11T20:14:08.566Z,3.10
2023-03-11T20:16:36.195Z,3.10
2023-03-11T20:19:04.484Z,5.10
2023-03-11T20:21:32.408Z,3.10
2023-03-11T20:24:00.124Z,3.10
2023-03-11T20:26:27.911Z,3.10
2023-03-11T20:28:56.994Z,3.10
2023-03-11T20:31:27.015Z,3.10
2023-03-11T20:33:55.477Z,3.20
2023-03-11T20:36:30.914Z,3.10
2023-03-11T20:38:59.109Z,3.20
2023-03-11T20:41:28.358Z,3.20
2023-03-11T20:43:58.056Z,3.20
2023-03-11T20:48:54.199Z,3.20
2023-03-11T20:51:23.226Z,3.20
2023-03-11T20:53:51.743Z,3.30
2023-03-11T20:56:22.886Z,3.70
2023-03-11T20:58:51.896Z,3.30
2023-03-11T21:01:28.746Z,3.30
2023-03-11T21:03:59.157Z,3.40
2023-03-11T21:06:33.042Z,3.40
2023-03-11T21:09:05.017Z,3.40
2023-03-11T21:11:33.940Z,3.40
2023-03-11T21:14:02.395Z,3.40
2023-03-11T21:16:30.424Z,3.40
2023-03-11T21:18:58.657Z,3.50
2023-03-11T21:21:26.457Z,3.50
2023-03-11T21:23:54.555Z,3.40
2023-03-11T21:26:22.611Z,2.20
2023-03-11T21:28:51.311Z,3.50
2023-03-11T21:31:27.115Z,3.30
2023-03-11T21:34:00.341Z,3.50
2023-03-11T21:36:29.762Z,3.50
2023-03-11T21:38:57.567Z,3.50
2023-03-11T21:41:27.014Z,3.50
2023-03-11T21:43:55.888Z,3.60
2023-03-11T21:46:29.758Z,3.50
2023-03-11T21:48:58.420Z,3.50
2023-03-11T21:51:26.429Z,3.60
2023-03-11T21:53:54.306Z,3.60
2023-03-11T21:56:22.283Z,3.60
2023-03-11T21:58:50.034Z,3.60
2023-03-11T22:01:18.297Z,3.60
2023-03-11T22:03:47.604Z,1.60
2023-03-11T22:06:15.798Z,3.60
2023-03-11T22:08:43.670Z,4.90
2023-03-11T22:11:17.973Z,3.60
2023-03-11T22:13:47.804Z,3.60
2023-03-11T22:16:15.797Z,3.60
2023-03-11T22:18:46.265Z,3.60
2023-03-11T22:21:16.868Z,3.60
2023-03-11T22:23:45.468Z,3.50
2023-03-11T22:26:14.056Z,3.60
2023-03-11T22:31:13.182Z,6.30
2023-03-11T22:33:41.128Z,3.60
2023-03-11T22:36:09.584Z,3.70
2023-03-11T22:38:41.514Z,3.60
2023-03-11T22:41:10.660Z,3.60
2023-03-11T22:43:39.290Z,3.60
2023-03-11T22:46:08.405Z,3.70
2023-03-11T22:48:36.424Z,3.70
2023-03-11T22:51:04.999Z,3.70
2023-03-11T22:53:33.476Z,3.70
2023-03-11T22:56:26.656Z,3.70
2023-03-11T22:58:55.956Z,3.70
2023-03-11T23:01:24.022Z,3.70
2023-03-11T23:03:51.725Z,3.70
2023-03-11T23:06:20.704Z,3.70
2023-03-11T23:08:49.067Z,3.80
2023-03-11T23:11:21.126Z,3.80
2023-03-11T23:13:49.393Z,4.30
2023-03-11T23:16:18.660Z,3.80
2023-03-11T23:18:48.355Z,3.80
2023-03-11T23:21:30.252Z,3.80
2023-03-11T23:24:04.003Z,3.80
2023-03-11T23:26:33.874Z,3.80
2023-03-11T23:29:04.496Z,3.90
2023-03-11T23:31:34.717Z,3.80
2023-03-11T23:36:31.047Z,3.90
2023-03-11T23:39:01.151Z,3.90
2023-03-11T23:41:29.292Z,3.90
2023-03-11T23:43:57.422Z,3.90
2023-03-11T23:46:25.104Z,3.90
2023-03-11T23:48:52.609Z,3.90
2023-03-11T23:51:20.391Z,3.90
2023-03-11T23:56:18.081Z,4.00
2023-03-11T23:58:46.950Z,4.00
